Time;durP1;ratioP1;P1;durP2;ratioP2;P2;SDS_P1;SDS_P2;PMS_P1;PMS_P2;Temp;Humidity;BMP_temperature;BMP_pressure;BME280_temperature;BME280_humidity;BME280_pressure;Samples;Min_cycle;Max_cycle;Signal;HPM_P1;HPM_P2
2022/12/01 00:00:57;;;;;;;14.07;12.38;;;6.90;99.90;;;;;;5026503;28;20467;-81
2022/12/01 00:03:25;;;;;;;13.10;11.70;;;6.90;99.90;;;;;;5030721;28;20457;-81
2022/12/01 00:06:07;;;;;;;13.77;12.20;;;6.90;99.90;;;;;;5031015;28;20487;-81
2022/12/01 00:08:36;;;;;;;13.00;11.60;;;6.90;99.90;;;;;;5033284;28;20458;-81
2022/12/01 00:11:05;;;;;;;13.50;12.10;;;6.90;99.90;;;;;;5024375;28;20434;-82
2022/12/01 00:13:47;;;;;;;12.60;11.40;;;6.90;99.90;;;;;;5032109;28;20479;-82
2022/12/01 00:16:24;;;;;;;12.52;11.32;;;6.90;99.90;;;;;;5032416;28;20520;-81
2022/12/01 00:18:53;;;;;;;13.60;12.23;;;6.90;99.90;;;;;;5044168;28;21939;-81
2022/12/01 00:21:25;;;;;;;12.80;11.50;;;6.90;99.90;;;;;;5041837;28;20427;-81
2022/12/01 00:23:58;;;;;;;11.77;10.50;;;6.90;99.90;;;;;;5035212;28;20430;-81
2022/12/01 00:26:35;;;;;;;12.93;11.63;;;6.90;99.90;;;;;;5032915;28;20427;-81
2022/12/01 00:29:04;;;;;;;13.98;12.57;;;6.90;99.90;;;;;;5031648;28;20466;-81
2022/12/01 00:31:43;;;;;;;12.20;10.70;;;6.90;99.90;;;;;;5027046;28;20431;-81
2022/12/01 00:34:23;;;;;;;12.77;11.52;;;6.90;99.90;;;;;;5023304;28;21311;-81
2022/12/01 00:36:59;;;;;;;13.67;12.17;;;6.90;99.90;;;;;;5023794;28;20929;-81
2022/12/01 00:39:26;;;;;;;13.63;12.30;;;6.90;99.90;;;;;;5022728;28;20435;-81
2022/12/01 00:41:57;;;;;;;13.13;11.45;;;6.90;99.90;;;;;;5030739;28;20513;-81
2022/12/01 00:44:26;;;;;;;14.32;12.85;;;6.90;99.90;;;;;;5025531;28;20608;-81
2022/12/01 00:46:54;;;;;;;13.75;12.38;;;6.90;99.90;;;;;;5025959;28;20854;-81
2022/12/01 00:49:22;;;;;;;13.73;12.40;;;6.90;99.90;;;;;;5030976;28;20430;-81
2022/12/01 00:51:52;;;;;;;14.13;12.63;;;6.90;99.90;;;;;;5033214;28;20419;-81
2022/12/01 00:57:05;;;;;;;14.25;12.75;;;6.90;99.90;;;;;;5030005;28;20506;-81
2022/12/01 00:59:44;;;;;;;13.30;12.00;;;6.90;99.90;;;;;;5026949;28;20553;-81
2022/12/01 01:02:14;;;;;;;13.90;12.50;;;6.90;99.90;;;;;;5027919;28;20779;-82
2022/12/01 01:04:42;;;;;;;13.48;12.07;;;6.90;99.90;;;;;;5029541;28;20434;-81
2022/12/01 01:07:11;;;;;;;13.57;12.03;;;6.90;99.90;;;;;;5032878;28;21002;-81
2022/12/01 01:12:32;;;;;;;13.20;11.90;;;6.90;99.90;;;;;;5022641;28;20936;-81
2022/12/01 01:15:02;;;;;;;13.90;12.50;;;6.90;99.90;;;;;;5024669;28;20414;-82
2022/12/01 01:17:32;;;;;;;13.70;12.27;;;6.90;99.90;;;;;;5027686;28;20496;-81
2022/12/01 01:20:08;;;;;;;15.13;13.35;;;6.90;99.90;;;;;;5027783;28;20431;-82
2022/12/01 01:25:24;;;;;;;14.40;13.00;;;6.90;99.90;;;;;;5017026;28;20450;-81
2022/12/01 01:27:53;;;;;;;14.80;13.30;;;6.90;99.90;;;;;;5031805;28;21328;-82
2022/12/01 01:30:23;;;;;;;14.60;13.10;;;6.90;99.90;;;;;;5030115;28;20435;-82
2022/12/01 01:32:54;;;;;;;15.23;13.68;;;6.90;99.90;;;;;;5030091;28;20501;-81
2022/12/01 01:35:23;;;;;;;14.48;12.98;;;6.90;99.90;;;;;;5030937;28;20427;-82
2022/12/01 01:41:26;;;;;;;14.83;13.33;;;6.90;99.90;;;;;;5024155;28;20471;-82
2022/12/01 01:43:58;;;;;;;15.27;13.68;;;6.90;99.90;;;;;;5029972;28;20703;-81
2022/12/01 01:46:27;;;;;;;17.43;14.70;;;6.90;99.90;;;;;;5035044;28;20439;-82
2022/12/01 01:49:00;;;;;;;15.55;13.95;;;6.90;99.90;;;;;;5035135;28;20500;-82
2022/12/01 01:51:34;;;;;;;15.88;13.90;;;6.90;99.90;;;;;;5041050;28;20550;-82
2022/12/01 01:54:07;;;;;;;17.10;15.30;;;6.90;99.90;;;;;;5034796;28;20436;-82
2022/12/01 01:56:39;;;;;;;16.70;14.90;;;6.90;99.90;;;;;;5039150;28;20924;-81
2022/12/01 01:59:09;;;;;;;18.02;15.55;;;6.90;99.90;;;;;;5039714;28;20445;-82
2022/12/01 02:01:37;;;;;;;17.25;15.45;;;6.90;99.90;;;;;;5037865;28;20529;-82
2022/12/01 02:04:12;;;;;;;16.63;14.93;;;6.90;99.90;;;;;;5030285;28;20883;-81
2022/12/01 02:06:40;;;;;;;18.13;15.73;;;6.90;99.90;;;;;;5032396;28;20880;-81
2022/12/01 02:09:14;;;;;;;19.52;16.40;;;6.90;99.90;;;;;;5033729;28;20434;-82
2022/12/01 02:12:06;;;;;;;20.33;17.15;;;6.90;99.90;;;;;;5016181;28;20431;-81
2022/12/01 02:14:58;;;;;;;20.58;17.88;;;6.90;99.90;;;;;;5028656;28;20465;-82
2022/12/01 02:17:37;;;;;;;20.75;17.35;;;6.90;99.90;;;;;;5038442;28;20477;-81
2022/12/01 02:20:34;;;;;;;21.15;18.30;;;6.90;99.90;;;;;;5030511;28;20829;-84
2022/12/01 02:23:37;;;;;;;23.30;18.75;;;6.90;99.90;;;;;;5017439;28;20516;-82
2022/12/01 02:26:38;;;;;;;22.77;18.50;;;6.90;99.90;;;;;;5017039;28;20417;-82
2022/12/01 02:32:33;;;;;;;21.17;17.98;;;6.90;99.90;;;;;;5021999;23;20437;-77
2022/12/01 02:35:07;;;;;;;23.10;19.90;;;6.90;99.90;;;;;;5024379;28;20770;-77
2022/12/01 02:37:40;;;;;;;23.95;19.25;;;6.80;99.90;;;;;;5026167;28;20423;-77
2022/12/01 02:40:15;;;;;;;24.88;20.70;;;6.80;99.90;;;;;;5017255;28;20440;-77
2022/12/01 02:42:49;;;;;;;24.52;19.92;;;6.80;99.90;;;;;;5003073;28;20436;-78
2022/12/01 02:45:22;;;;;;;25.83;22.08;;;6.90;99.90;;;;;;5002054;28;20451;-77
2022/12/01 02:47:54;;;;;;;24.90;20.20;;;6.80;99.90;;;;;;5004854;28;20535;-78
2022/12/01 02:50:23;;;;;;;23.65;20.20;;;6.90;99.90;;;;;;4999139;28;20798;-78
2022/12/01 02:52:50;;;;;;;25.00;19.75;;;6.80;99.90;;;;;;4987978;28;20430;-77
2022/12/01 02:55:16;;;;;;;22.63;19.33;;;6.80;99.90;;;;;;5000618;28;20439;-78
2022/12/01 02:57:43;;;;;;;25.00;19.92;;;6.80;99.90;;;;;;5003342;28;20429;-77
2022/12/01 03:00:13;;;;;;;24.33;19.70;;;6.80;99.90;;;;;;5002137;28;20436;-78
2022/12/01 03:02:50;;;;;;;21.15;18.70;;;6.80;99.90;;;;;;5002877;28;20472;-77
2022/12/01 03:05:24;;;;;;;22.23;18.27;;;6.80;99.90;;;;;;4993543;28;20877;-77
2022/12/01 03:08:00;;;;;;;23.67;18.98;;;6.80;99.90;;;;;;5002241;28;20440;-78
2022/12/01 03:10:31;;;;;;;22.23;18.95;;;6.80;99.90;;;;;;4996307;28;20884;-77
2022/12/01 03:13:08;;;;;;;23.23;19.75;;;6.70;99.90;;;;;;5003230;28;20420;-77
2022/12/01 03:15:38;;;;;;;23.25;20.52;;;6.70;99.90;;;;;;5000658;28;20451;-78
2022/12/01 03:18:14;;;;;;;23.35;19.27;;;6.70;99.90;;;;;;4996509;28;20442;-78
2022/12/01 03:20:47;;;;;;;21.73;19.42;;;6.70;99.90;;;;;;5005664;28;20440;-77
2022/12/01 03:23:19;;;;;;;22.52;18.48;;;6.80;99.90;;;;;;4999526;28;20442;-77
2022/12/01 03:25:50;;;;;;;22.50;18.70;;;6.80;99.90;;;;;;5001604;28;20437;-78
2022/12/01 03:28:21;;;;;;;26.10;21.00;;;6.80;99.90;;;;;;5002445;28;20439;-77
2022/12/01 03:30:52;;;;;;;22.90;19.30;;;6.80;99.90;;;;;;5003657;28;20798;-78
2022/12/01 03:33:24;;;;;;;24.40;20.10;;;6.80;99.90;;;;;;5004485;28;20744;-77
2022/12/01 03:35:58;;;;;;;22.88;19.55;;;6.80;99.90;;;;;;4997514;28;20447;-77
2022/12/01 03:38:26;;;;;;;24.00;19.65;;;6.80;99.90;;;;;;5008539;28;20451;-77
2022/12/01 03:40:58;;;;;;;24.85;20.27;;;6.80;99.90;;;;;;5005633;28;20939;-78
2022/12/01 03:43:30;;;;;;;25.38;21.38;;;6.80;99.90;;;;;;5009390;28;20444;-78
2022/12/01 03:46:04;;;;;;;23.15;20.17;;;6.70;99.90;;;;;;5006043;28;20532;-78
2022/12/01 03:48:31;;;;;;;24.13;20.45;;;6.80;99.90;;;;;;5003699;28;20492;-77
2022/12/01 03:51:08;;;;;;;25.90;20.40;;;6.70;99.90;;;;;;5008208;28;20914;-77
2022/12/01 03:53:46;;;;;;;25.08;21.70;;;6.80;99.90;;;;;;5006153;28;20553;-77
2022/12/01 03:56:16;;;;;;;28.35;22.48;;;6.70;99.90;;;;;;5010374;28;20460;-77
2022/12/01 03:58:47;;;;;;;26.75;22.20;;;6.70;99.90;;;;;;5009976;28;20440;-78
2022/12/01 04:01:14;;;;;;;30.88;23.08;;;6.70;99.90;;;;;;5010407;28;20441;-79
2022/12/01 04:03:41;;;;;;;29.95;22.42;;;6.70;99.90;;;;;;5011580;28;20493;-77
2022/12/01 04:06:09;;;;;;;31.38;23.98;;;6.70;99.90;;;;;;5013398;28;20436;-77
2022/12/01 04:08:36;;;;;;;30.40;23.48;;;6.70;99.90;;;;;;5008129;28;20523;-77
2022/12/01 04:12:28;;;;;;;30.67;23.17;;;6.70;99.90;;;;;;5013575;28;20574;-77
2022/12/01 04:13:49;;;;;;;33.55;24.95;;;6.70;99.90;;;;;;5002683;28;20492;-77
2022/12/01 04:16:16;;;;;;;32.60;24.77;;;6.70;99.90;;;;;;5002690;28;20513;-78
2022/12/01 04:18:43;;;;;;;34.60;24.48;;;6.70;99.90;;;;;;4996369;28;20434;-77
2022/12/01 04:21:11;;;;;;;31.40;25.58;;;6.70;99.90;;;;;;4992883;28;21081;-77
2022/12/01 04:26:24;;;;;;;31.20;24.10;;;6.70;99.90;;;;;;4999837;28;20813;-77
2022/12/01 04:28:51;;;;;;;36.35;27.08;;;6.60;99.90;;;;;;4996283;28;20806;-77
2022/12/01 04:31:18;;;;;;;36.78;26.88;;;6.60;99.90;;;;;;4998299;28;20432;-77
2022/12/01 04:33:45;;;;;;;34.20;26.13;;;6.70;99.90;;;;;;4998874;28;20434;-78
2022/12/01 04:36:13;;;;;;;34.33;25.70;;;6.60;99.90;;;;;;5006284;28;20602;-78
2022/12/01 04:38:39;;;;;;;38.22;25.80;;;6.70;99.90;;;;;;5006351;28;20424;-78
2022/12/01 04:41:09;;;;;;;37.90;25.98;;;6.60;99.90;;;;;;5008848;28;20421;-78
2022/12/01 04:43:36;;;;;;;36.38;27.10;;;6.60;99.90;;;;;;5002344;28;20569;-77
2022/12/01 04:46:03;;;;;;;38.58;26.73;;;6.60;99.90;;;;;;5004869;28;20445;-78
2022/12/01 04:48:30;;;;;;;38.35;27.27;;;6.60;99.90;;;;;;5001938;28;20429;-78
2022/12/01 04:50:56;;;;;;;39.78;28.48;;;6.60;99.90;;;;;;4997470;28;20444;-78
2022/12/01 04:53:25;;;;;;;39.08;28.25;;;6.70;99.90;;;;;;5002346;28;20436;-78
2022/12/01 04:55:51;;;;;;;40.10;28.17;;;6.70;99.90;;;;;;5007525;28;20409;-77
2022/12/01 04:58:18;;;;;;;38.55;27.23;;;6.70;99.90;;;;;;5006257;28;20440;-77
2022/12/01 05:00:45;;;;;;;38.35;26.58;;;6.70;99.90;;;;;;4998119;28;20442;-78
2022/12/01 05:03:12;;;;;;;40.80;26.53;;;6.70;99.90;;;;;;5005046;28;20512;-78
2022/12/01 05:05:38;;;;;;;36.75;26.20;;;6.70;99.90;;;;;;5006082;28;20807;-78
2022/12/01 05:08:05;;;;;;;39.30;27.33;;;6.70;99.90;;;;;;4999707;28;20444;-78
2022/12/01 05:10:36;;;;;;;38.03;27.42;;;6.70;99.90;;;;;;5004116;28;20441;-78
2022/12/01 05:13:02;;;;;;;36.92;26.80;;;6.70;99.90;;;;;;4995831;28;20468;-79
2022/12/01 05:15:29;;;;;;;36.83;27.10;;;6.70;99.90;;;;;;4997922;28;20429;-78
2022/12/01 05:17:56;;;;;;;36.03;26.63;;;6.70;99.90;;;;;;5004496;28;20777;-76
2022/12/01 05:23:10;;;;;;;41.77;28.90;;;6.70;99.90;;;;;;5012236;28;21043;-77
2022/12/01 05:25:38;;;;;;;38.60;28.83;;;6.70;99.90;;;;;;5014008;28;20420;-77
2022/12/01 05:28:05;;;;;;;38.67;29.00;;;6.70;99.90;;;;;;5007715;28;20436;-76
2022/12/01 05:30:32;;;;;;;39.05;27.95;;;6.70;99.90;;;;;;5007978;28;20443;-76
2022/12/01 05:32:59;;;;;;;36.92;27.20;;;6.70;99.90;;;;;;5006452;28;20491;-77
2022/12/01 05:35:26;;;;;;;37.30;27.90;;;6.70;99.90;;;;;;5008938;28;20428;-77
2022/12/01 05:37:53;;;;;;;36.25;27.73;;;6.70;99.90;;;;;;5006906;28;20451;-76
2022/12/01 05:40:19;;;;;;;35.65;27.25;;;6.70;99.90;;;;;;5007023;28;20439;-76
2022/12/01 05:42:48;;;;;;;36.00;26.63;;;6.70;99.90;;;;;;5006646;28;20463;-77
2022/12/01 05:45:14;;;;;;;35.58;27.23;;;6.70;99.90;;;;;;5002807;28;20432;-77
2022/12/01 05:47:41;;;;;;;35.75;26.80;;;6.70;99.90;;;;;;5004131;28;20432;-76
2022/12/01 05:50:08;;;;;;;40.15;26.88;;;6.70;99.90;;;;;;5003471;28;20452;-76
2022/12/01 05:52:35;;;;;;;36.67;28.25;;;6.70;99.90;;;;;;5004157;28;20435;-76
2022/12/01 05:55:02;;;;;;;36.78;26.75;;;6.60;99.90;;;;;;5014920;28;20422;-76
2022/12/01 05:57:29;;;;;;;35.70;27.20;;;6.60;99.90;;;;;;5012573;28;20510;-76
2022/12/01 05:59:57;;;;;;;36.80;28.08;;;6.60;99.90;;;;;;5000823;28;20440;-77
2022/12/01 06:02:25;;;;;;;35.25;27.38;;;6.60;99.90;;;;;;5004864;28;20436;-75
2022/12/01 06:04:52;;;;;;;31.42;25.20;;;6.60;99.90;;;;;;5007119;28;20444;-76
2022/12/01 06:07:19;;;;;;;31.92;24.75;;;6.60;99.90;;;;;;5016150;28;20662;-76
2022/12/01 06:09:46;;;;;;;28.10;22.17;;;6.60;99.90;;;;;;5015829;28;20435;-76
2022/12/01 06:12:13;;;;;;;26.00;21.20;;;6.60;99.90;;;;;;5022031;28;20437;-76
2022/12/01 06:14:40;;;;;;;25.35;20.05;;;6.60;99.90;;;;;;5020614;28;20937;-77
2022/12/01 06:17:08;;;;;;;25.95;21.67;;;6.60;99.90;;;;;;5016172;28;20507;-77
2022/12/01 06:19:36;;;;;;;25.10;20.73;;;6.50;99.90;;;;;;5009999;28;20432;-76
2022/12/01 06:22:03;;;;;;;25.20;20.67;;;6.50;99.90;;;;;;5007365;28;20435;-74
2022/12/01 06:24:30;;;;;;;24.17;21.50;;;6.50;99.90;;;;;;5004058;28;20451;-70
2022/12/01 06:26:56;;;;;;;22.90;20.40;;;6.50;99.90;;;;;;5004151;28;20441;-71
2022/12/01 06:29:23;;;;;;;22.35;19.92;;;6.50;99.90;;;;;;5001989;28;20499;-76
2022/12/01 06:31:50;;;;;;;23.17;18.70;;;6.50;99.90;;;;;;5008466;28;20445;-76
2022/12/01 06:34:18;;;;;;;23.00;18.55;;;6.50;99.90;;;;;;5003556;28;20437;-74
2022/12/01 06:36:45;;;;;;;22.88;18.88;;;6.50;99.90;;;;;;5007818;28;20474;-75
2022/12/01 06:39:11;;;;;;;20.88;18.67;;;6.50;99.90;;;;;;4996135;28;20437;-75
2022/12/01 06:41:39;;;;;;;25.05;20.52;;;6.50;99.90;;;;;;5004871;28;20433;-74
2022/12/01 06:44:06;;;;;;;24.60;20.92;;;6.50;99.90;;;;;;5002042;28;20441;-75
2022/12/01 06:46:32;;;;;;;22.80;19.77;;;6.50;99.90;;;;;;5003213;28;20903;-76
2022/12/01 06:48:59;;;;;;;23.00;19.35;;;6.50;99.90;;;;;;5002529;28;20493;-76
2022/12/01 06:51:27;;;;;;;27.20;21.47;;;6.50;99.90;;;;;;5004411;28;20440;-76
2022/12/01 06:53:54;;;;;;;26.77;22.02;;;6.50;99.90;;;;;;5002429;28;20447;-76
2022/12/01 06:56:21;;;;;;;25.58;21.52;;;6.60;99.90;;;;;;4998838;28;20491;-77
2022/12/01 06:58:49;;;;;;;25.65;21.98;;;6.50;99.90;;;;;;5004846;28;20531;-76
2022/12/01 07:01:16;;;;;;;31.38;23.83;;;6.50;99.90;;;;;;5006209;28;20841;-77
2022/12/01 07:03:46;;;;;;;29.67;23.70;;;6.60;99.90;;;;;;5002059;28;21013;-76
2022/12/01 07:06:13;;;;;;;33.97;25.33;;;6.50;99.90;;;;;;5005843;28;20437;-76
2022/12/01 07:08:41;;;;;;;30.92;24.77;;;6.60;99.90;;;;;;5004742;28;20942;-76
2022/12/01 07:11:11;;;;;;;32.67;24.25;;;6.60;99.90;;;;;;4997405;28;20421;-76
2022/12/01 07:13:39;;;;;;;31.90;25.43;;;6.60;99.90;;;;;;4998714;28;20622;-76
2022/12/01 07:16:07;;;;;;;32.22;24.80;;;6.60;99.90;;;;;;5000341;28;20546;-76
2022/12/01 07:18:34;;;;;;;30.75;24.35;;;6.60;99.90;;;;;;5002857;28;20433;-76
2022/12/01 07:21:02;;;;;;;31.50;23.55;;;6.60;99.90;;;;;;5005597;28;20454;-77
2022/12/01 07:23:29;;;;;;;30.20;23.23;;;6.60;99.90;;;;;;5002973;28;20984;-76
2022/12/01 07:26:01;;;;;;;33.72;23.77;;;6.60;99.90;;;;;;5004793;28;20436;-76
2022/12/01 07:28:28;;;;;;;32.25;23.40;;;6.60;99.90;;;;;;4995795;28;20442;-77
2022/12/01 07:31:01;;;;;;;30.75;24.17;;;6.70;99.90;;;;;;5001387;28;20433;-76
2022/12/01 07:33:28;;;;;;;31.57;23.00;;;6.60;99.90;;;;;;4998402;28;21068;-77
2022/12/01 07:35:55;;;;;;;29.73;24.23;;;6.60;99.90;;;;;;5000701;28;20433;-76
2022/12/01 07:38:22;;;;;;;29.23;22.73;;;6.60;99.90;;;;;;5003299;28;20432;-76
2022/12/01 07:40:48;;;;;;;29.73;22.85;;;6.60;99.90;;;;;;4998294;28;20442;-77
2022/12/01 07:43:16;;;;;;;29.58;22.73;;;6.60;99.90;;;;;;5000714;28;20440;-76
2022/12/01 07:45:43;;;;;;;32.38;23.27;;;6.60;99.90;;;;;;4997591;28;20582;-75
2022/12/01 07:48:10;;;;;;;30.60;23.70;;;6.70;99.90;;;;;;5004037;28;20439;-76
2022/12/01 07:50:37;;;;;;;29.85;21.50;;;6.70;99.90;;;;;;5008586;28;20422;-77
2022/12/01 07:53:03;;;;;;;29.42;22.52;;;6.70;99.90;;;;;;5000498;28;20956;-77
2022/12/01 07:55:30;;;;;;;29.95;22.40;;;6.70;99.90;;;;;;5004818;28;20453;-76
2022/12/01 07:58:00;;;;;;;31.03;22.50;;;6.70;99.90;;;;;;5001371;28;20436;-76
2022/12/01 08:00:28;;;;;;;30.40;22.43;;;6.80;99.90;;;;;;5001236;28;20496;-76
2022/12/01 08:02:55;;;;;;;28.13;22.98;;;6.80;99.90;;;;;;5003214;28;20905;-76
2022/12/01 08:05:21;;;;;;;29.52;21.50;;;6.80;99.90;;;;;;5005383;28;20440;-75
2022/12/01 08:07:48;;;;;;;30.40;22.80;;;6.80;99.90;;;;;;5004849;28;20914;-76
2022/12/01 08:10:15;;;;;;;30.27;22.55;;;6.80;99.90;;;;;;5006662;28;20428;-76
2022/12/01 08:12:42;;;;;;;28.35;22.00;;;6.80;99.90;;;;;;5006409;28;20443;-76
2022/12/01 08:15:09;;;;;;;28.60;21.85;;;6.80;99.90;;;;;;5004467;28;20442;-76
2022/12/01 08:17:37;;;;;;;26.30;21.92;;;6.90;99.90;;;;;;5004827;28;20436;-76
2022/12/01 08:20:05;;;;;;;26.77;21.27;;;6.90;99.90;;;;;;5014223;28;20998;-76
2022/12/01 08:22:32;;;;;;;26.58;23.20;;;6.90;99.90;;;;;;5005949;28;20452;-76
2022/12/01 08:24:59;;;;;;;26.20;21.60;;;6.90;99.90;;;;;;5003758;28;20437;-76
2022/12/01 08:27:26;;;;;;;25.67;20.58;;;6.90;99.90;;;;;;5003847;28;20443;-76
2022/12/01 08:29:53;;;;;;;26.10;20.80;;;6.90;99.90;;;;;;5005453;28;20510;-75
2022/12/01 08:32:20;;;;;;;22.73;19.98;;;6.90;99.90;;;;;;5003688;28;20460;-77
2022/12/01 08:34:48;;;;;;;21.60;19.23;;;6.90;99.90;;;;;;5005848;28;20448;-77
2022/12/01 08:37:15;;;;;;;22.90;19.17;;;6.90;99.90;;;;;;4999562;28;20443;-77
2022/12/01 08:39:42;;;;;;;21.42;18.25;;;6.90;99.90;;;;;;5001099;28;20424;-77
2022/12/01 08:42:08;;;;;;;24.37;20.67;;;6.90;99.90;;;;;;5004242;28;20444;-78
2022/12/01 08:44:35;;;;;;;21.40;19.05;;;6.90;99.50;;;;;;5011859;28;20542;-76
2022/12/01 08:47:02;;;;;;;21.20;18.75;;;6.90;99.60;;;;;;5002654;28;20471;-77
2022/12/01 08:49:29;;;;;;;21.77;18.42;;;6.90;99.50;;;;;;5009851;28;20439;-76
2022/12/01 08:51:57;;;;;;;21.42;17.85;;;6.90;99.50;;;;;;5011517;28;22113;-77
2022/12/01 08:54:23;;;;;;;21.90;18.30;;;6.90;99.50;;;;;;5024348;28;20492;-76
2022/12/01 08:56:50;;;;;;;21.88;19.40;;;6.90;99.50;;;;;;5018469;28;20444;-77
2022/12/01 08:59:17;;;;;;;20.43;18.03;;;6.90;99.20;;;;;;5004830;28;20463;-78
2022/12/01 09:01:53;;;;;;;19.80;17.40;;;6.90;99.10;;;;;;5012259;28;20457;-75
2022/12/01 09:04:22;;;;;;;20.92;17.00;;;6.90;99.20;;;;;;5002301;28;20436;-77
2022/12/01 09:06:50;;;;;;;20.77;17.02;;;6.90;99.10;;;;;;5015451;28;20436;-76
2022/12/01 09:09:21;;;;;;;18.30;15.90;;;6.90;98.90;;;;;;5014266;28;20527;-76
2022/12/01 09:11:48;;;;;;;18.73;16.73;;;6.90;98.80;;;;;;5008046;28;20428;-76
2022/12/01 09:14:16;;;;;;;19.08;15.45;;;7.00;98.90;;;;;;5002406;28;20434;-76
2022/12/01 09:16:45;;;;;;;19.80;16.47;;;7.00;98.90;;;;;;4995627;28;20530;-76
2022/12/01 09:19:12;;;;;;;18.42;16.35;;;7.00;98.70;;;;;;5002110;28;20459;-76
2022/12/01 09:21:39;;;;;;;19.05;15.85;;;7.00;98.50;;;;;;5005779;28;20443;-76
2022/12/01 09:24:07;;;;;;;18.25;16.25;;;7.10;98.50;;;;;;5003695;28;20451;-76
2022/12/01 09:26:35;;;;;;;19.38;17.38;;;7.10;98.60;;;;;;5005105;28;20433;-76
2022/12/01 09:29:12;;;;;;;19.33;15.77;;;7.10;98.50;;;;;;5004675;28;20460;-75
2022/12/01 09:31:39;;;;;;;20.47;16.07;;;7.10;98.30;;;;;;5000517;28;20497;-76
2022/12/01 09:34:08;;;;;;;18.20;16.30;;;7.10;98.00;;;;;;5001342;28;20439;-76
2022/12/01 09:36:36;;;;;;;19.65;16.63;;;7.10;97.90;;;;;;5000699;28;20824;-76
2022/12/01 09:39:04;;;;;;;19.27;16.90;;;7.10;98.00;;;;;;5004229;28;20439;-76
2022/12/01 09:41:36;;;;;;;18.92;16.88;;;7.10;97.90;;;;;;5006634;28;20435;-76
2022/12/01 09:44:14;;;;;;;18.63;16.60;;;7.10;98.00;;;;;;5004608;28;20444;-75
2022/12/01 09:46:46;;;;;;;22.93;16.30;;;7.10;98.00;;;;;;4995176;28;20436;-76
2022/12/01 09:49:24;;;;;;;19.25;16.15;;;7.10;97.80;;;;;;5001927;28;21045;-76
2022/12/01 09:51:53;;;;;;;16.63;14.85;;;7.10;97.90;;;;;;5001347;28;20508;-74
2022/12/01 09:54:20;;;;;;;17.55;15.18;;;7.10;97.70;;;;;;4998013;28;20442;-76
2022/12/01 09:56:52;;;;;;;19.40;16.35;;;7.10;97.60;;;;;;4994871;28;20450;-76
2022/12/01 09:59:22;;;;;;;17.70;15.80;;;7.20;97.50;;;;;;5003002;28;20436;-76
2022/12/01 10:01:53;;;;;;;17.85;14.88;;;7.20;97.70;;;;;;5005187;28;20455;-76
2022/12/01 10:04:27;;;;;;;17.20;14.43;;;7.20;97.70;;;;;;5001825;28;20440;-76
2022/12/01 10:06:59;;;;;;;17.17;15.07;;;7.30;97.60;;;;;;5002477;28;21128;-76
2022/12/01 10:09:33;;;;;;;16.05;14.45;;;7.30;97.30;;;;;;5003347;28;20450;-77
2022/12/01 10:12:12;;;;;;;17.30;15.40;;;7.30;97.30;;;;;;5015128;28;20639;-76
2022/12/01 10:14:39;;;;;;;15.77;13.75;;;7.30;97.40;;;;;;5021083;28;20416;-76
2022/12/01 10:17:19;;;;;;;16.48;14.70;;;7.30;97.00;;;;;;5022377;28;20510;-78
2022/12/01 10:19:53;;;;;;;17.00;15.20;;;7.30;96.80;;;;;;5025836;28;20484;-77
2022/12/01 10:22:45;;;;;;;14.75;13.25;;;7.30;96.60;;;;;;5015562;28;20744;-77
2022/12/01 10:25:20;;;;;;;15.13;13.18;;;7.30;96.40;;;;;;5017965;28;20417;-77
2022/12/01 10:28:04;;;;;;;16.52;14.30;;;7.30;96.40;;;;;;5011501;28;20436;-77
2022/12/01 10:30:31;;;;;;;15.87;13.30;;;7.30;96.40;;;;;;5005483;28;20510;-76
2022/12/01 10:33:06;;;;;;;14.15;12.75;;;7.30;96.40;;;;;;5005659;28;20487;-77
2022/12/01 10:35:36;;;;;;;14.40;12.80;;;7.40;96.40;;;;;;5017906;28;20431;-77
2022/12/01 10:38:05;;;;;;;14.98;13.00;;;7.30;96.30;;;;;;5009664;28;20892;-76
2022/12/01 10:40:34;;;;;;;13.50;12.13;;;7.30;96.30;;;;;;4999905;28;20429;-76
2022/12/01 10:43:03;;;;;;;13.63;12.23;;;7.30;96.20;;;;;;5003662;28;20472;-77
2022/12/01 10:45:34;;;;;;;14.15;12.65;;;7.30;95.90;;;;;;4999773;28;20444;-76
2022/12/01 10:48:10;;;;;;;14.37;12.57;;;7.30;96.00;;;;;;5011310;28;20421;-75
2022/12/01 10:50:37;;;;;;;13.38;12.07;;;7.30;95.90;;;;;;5000199;28;20549;-78
2022/12/01 10:53:04;;;;;;;14.37;12.70;;;7.30;96.30;;;;;;5004581;28;20579;-75
2022/12/01 10:55:33;;;;;;;12.93;11.73;;;7.30;96.20;;;;;;5007466;28;20442;-77
2022/12/01 10:58:06;;;;;;;13.73;11.77;;;7.30;95.70;;;;;;5020182;28;20495;-78
2022/12/01 11:00:36;;;;;;;12.88;11.57;;;7.40;95.60;;;;;;5014792;28;20436;-78
2022/12/01 11:03:04;;;;;;;14.73;12.80;;;7.40;95.20;;;;;;5009831;28;20555;-78
2022/12/01 11:05:35;;;;;;;12.25;11.10;;;7.40;95.50;;;;;;4998733;28;20447;-75
2022/12/01 11:08:02;;;;;;;11.77;10.50;;;7.40;95.60;;;;;;4997707;28;20918;-78
2022/12/01 11:10:30;;;;;;;11.00;9.90;;;7.40;95.70;;;;;;4994348;28;20432;-75
2022/12/01 11:12:59;;;;;;;10.60;9.60;;;7.40;95.10;;;;;;4998626;28;20449;-75
2022/12/01 11:15:31;;;;;;;9.40;8.50;;;7.40;94.80;;;;;;4998822;28;20455;-74
2022/12/01 11:17:59;;;;;;;10.20;9.10;;;7.40;94.40;;;;;;5001353;28;20443;-74
2022/12/01 11:20:32;;;;;;;10.10;9.20;;;7.40;94.30;;;;;;5004180;28;20959;-73
2022/12/01 11:23:24;;;;;;;11.40;10.30;;;7.40;94.50;;;;;;4997368;28;20555;-75
2022/12/01 11:26:01;;;;;;;10.55;9.30;;;7.50;94.20;;;;;;5003201;28;20537;-77
2022/12/01 11:28:29;;;;;;;9.70;8.80;;;7.50;94.40;;;;;;5005678;28;20527;-77
2022/12/01 11:31:01;;;;;;;10.23;9.23;;;7.50;94.20;;;;;;5031218;22;20448;-68
2022/12/01 11:33:28;;;;;;;10.80;9.70;;;7.40;94.20;;;;;;5040291;28;20432;-71
2022/12/01 11:35:55;;;;;;;10.40;9.40;;;7.40;94.40;;;;;;5049371;28;20895;-69
2022/12/01 11:38:30;;;;;;;10.55;9.55;;;7.40;94.50;;;;;;5035838;28;20444;-67
2022/12/01 11:40:58;;;;;;;9.47;8.57;;;7.40;94.40;;;;;;5038576;28;20411;-71
2022/12/01 11:43:28;;;;;;;11.13;10.02;;;7.50;94.20;;;;;;5026069;28;20431;-70
2022/12/01 11:45:59;;;;;;;10.20;9.10;;;7.50;94.30;;;;;;5024186;28;21122;-70
2022/12/01 11:48:27;;;;;;;11.40;10.17;;;7.50;94.00;;;;;;5027901;28;20913;-70
2022/12/01 11:51:03;;;;;;;12.70;10.80;;;7.50;93.30;;;;;;5028904;28;20430;-70
2022/12/01 11:53:32;;;;;;;13.40;12.00;;;7.50;92.70;;;;;;5026488;28;20506;-72
2022/12/01 11:56:17;;;;;;;14.10;12.60;;;7.40;92.60;;;;;;5024646;28;20435;-71
2022/12/01 11:58:46;;;;;;;13.85;12.07;;;7.40;92.80;;;;;;5022542;28;20971;-67
2022/12/01 12:01:23;;;;;;;14.40;12.90;;;7.40;92.60;;;;;;5026978;28;20438;-68
2022/12/01 12:03:58;;;;;;;14.23;12.73;;;7.40;92.30;;;;;;5025670;28;20438;-67
2022/12/01 12:06:29;;;;;;;15.63;13.98;;;7.40;92.30;;;;;;5027037;28;20443;-69
2022/12/01 12:09:11;;;;;;;16.05;13.70;;;7.30;92.00;;;;;;5026448;28;20525;-68
2022/12/01 12:11:45;;;;;;;16.25;14.55;;;7.30;92.00;;;;;;5028755;28;20430;-69
2022/12/01 12:14:23;;;;;;;18.17;16.33;;;7.30;91.60;;;;;;5028396;28;21031;-67
2022/12/01 12:17:08;;;;;;;19.75;17.10;;;7.30;90.80;;;;;;5027087;28;20438;-68
2022/12/01 12:19:51;;;;;;;18.52;16.50;;;7.30;90.50;;;;;;5027550;28;20431;-68
2022/12/01 12:22:27;;;;;;;18.00;16.20;;;7.40;90.70;;;;;;5018973;28;20999;-68
2022/12/01 12:25:07;;;;;;;18.75;16.83;;;7.40;90.60;;;;;;5024482;28;20526;-68
2022/12/01 12:27:56;;;;;;;17.50;15.60;;;7.40;89.60;;;;;;5024627;28;20423;-70
2022/12/01 12:30:28;;;;;;;16.40;14.80;;;7.40;89.70;;;;;;5022305;28;20438;-69
2022/12/01 12:33:36;;;;;;;18.30;16.40;;;7.30;88.90;;;;;;5022675;28;20426;-68
2022/12/01 12:36:14;;;;;;;18.00;15.57;;;7.30;90.00;;;;;;4980664;28;20456;-68
2022/12/01 12:38:54;;;;;;;16.88;15.18;;;7.30;89.40;;;;;;5021711;28;20440;-70
2022/12/01 12:41:31;;;;;;;19.88;15.40;;;7.30;88.10;;;;;;5021241;28;21063;-71
2022/12/01 12:44:10;;;;;;;18.25;15.70;;;7.30;88.70;;;;;;5028009;28;20430;-69
2022/12/01 12:46:45;;;;;;;19.00;16.17;;;7.40;88.50;;;;;;5027267;28;20441;-70
2022/12/01 12:49:25;;;;;;;18.90;16.88;;;7.30;88.40;;;;;;5016680;28;20442;-69
2022/12/01 12:51:59;;;;;;;19.65;17.52;;;7.40;88.00;;;;;;5020569;28;20916;-70
2022/12/01 12:54:30;;;;;;;20.25;17.60;;;7.40;88.80;;;;;;5025643;28;20434;-70
2022/12/01 12:57:02;;;;;;;24.38;20.38;;;7.40;89.30;;;;;;5023777;28;20439;-69
2022/12/01 12:59:34;;;;;;;22.88;19.58;;;7.30;89.70;;;;;;5027188;28;20442;-70
2022/12/01 13:02:10;;;;;;;22.63;19.83;;;7.40;89.50;;;;;;5028240;28;20463;-69
2022/12/01 13:04:49;;;;;;;24.15;20.85;;;7.30;89.50;;;;;;5029114;28;20443;-69
2022/12/01 13:07:34;;;;;;;22.20;19.20;;;7.30;89.80;;;;;;5023390;28;20423;-69
2022/12/01 13:10:09;;;;;;;24.83;20.00;;;7.40;90.00;;;;;;5021520;28;20441;-70
2022/12/01 13:12:41;;;;;;;23.17;20.02;;;7.40;90.00;;;;;;5021685;28;20431;-70
2022/12/01 13:15:16;;;;;;;24.27;20.75;;;7.40;88.50;;;;;;5021713;28;20435;-70
2022/12/01 13:17:47;;;;;;;22.90;20.40;;;7.40;89.30;;;;;;5025138;28;20503;-70